Terminal Aerodrome Forecast
Issued by NWS Wilmington, OH

Home | Current Version | Previous Version | Text Only | Print | Product List | Glossary On
Versions: 1 2 3 4 5 6 7 8 9 10 11 12 13 14 15 16 17 18 19 20 21 22 23 24
060
FTUS41 KILN 232340 AAB
TAFCVG
TAF AMD
KCVG 232340Z 2400/2506 33011KT 3SM BR VCSH OVC008
     FM240400 32009KT 5SM -DZ BR OVC006
     FM240900 30008KT P6SM OVC006
     FM241700 29007KT P6SM OVC015
     FM242200 20004KT P6SM BKN025
     FM250100 16005KT P6SM BKN035
     FM250400 16006KT P6SM SCT120=

USA.gov is the U.S. government's official web portal to all federal, state and local government web resources and services.